Terminal Aerodrome Forecast
Issued by NWS

Home | Current Version | Previous Version | Text Only | Print | Product List | Glossary On
Versions: 1 2 3 4 5 6 7 8 9 10 11 12 13 14 15 16 17 18 19
061
FTUS43 KDVN 202321
TAFBRL
TAF
KBRL 202321Z 2100/2124 03010KT P6SM BKN200
     FM210400 03006KT P6SM BKN200
     FM211500 02009KT P6SM OVC100 PROB30 2115/2119 -SHRA BKN060=

USA.gov is the U.S. government's official web portal to all federal, state and local government web resources and services.